Time;durP1;ratioP1;P1;durP2;ratioP2;P2;SDS_P1;SDS_P2;PMS_P1;PMS_P2;Temp;Humidity;BMP_temperature;BMP_pressure;BME280_temperature;BME280_humidity;BME280_pressure;Samples;Min_cycle;Max_cycle;Signal;HPM_P1;HPM_P2
2021/01/04 00:02:15;;;;;;;16.65;12.98;;;3.40;90.40;;;;;;5038251;28;20017;-57
2021/01/04 00:05:35;;;;;;;16.45;12.85;;;3.40;90.40;;;;;;5041024;28;20060;-58
2021/01/04 00:08:23;;;;;;;17.95;13.75;;;3.40;90.40;;;;;;4949504;28;20024;-60
2021/01/04 00:11:10;;;;;;;15.70;12.68;;;3.40;90.40;;;;;;5020167;28;20123;-58
2021/01/04 00:13:38;;;;;;;17.75;12.80;;;3.40;90.40;;;;;;5019128;28;20460;-57
2021/01/04 00:16:15;;;;;;;17.13;13.32;;;3.40;90.40;;;;;;5044076;28;20024;-57
2021/01/04 00:18:48;;;;;;;18.23;13.43;;;3.40;90.40;;;;;;5035086;28;20033;-60
2021/01/04 00:21:24;;;;;;;18.58;13.90;;;3.30;90.40;;;;;;5026340;28;20036;-57
2021/01/04 00:24:08;;;;;;;16.67;12.68;;;3.30;90.40;;;;;;5030066;28;20396;-58
2021/01/04 00:26:54;;;;;;;17.63;13.68;;;3.40;90.40;;;;;;5047910;28;20021;-56
2021/01/04 00:29:19;;;;;;;17.90;13.45;;;3.30;90.40;;;;;;5044386;28;20029;-59
2021/01/04 00:31:57;;;;;;;17.08;13.15;;;3.30;90.40;;;;;;5002981;28;20059;-58
2021/01/04 00:34:49;;;;;;;22.02;13.73;;;3.30;90.40;;;;;;5029736;28;20034;-59
2021/01/04 00:37:36;;;;;;;17.85;13.40;;;3.30;90.40;;;;;;5010753;28;20041;-58
2021/01/04 00:40:38;;;;;;;17.52;13.70;;;3.30;90.40;;;;;;5012091;28;20393;-58
2021/01/04 00:43:03;;;;;;;19.23;13.75;;;3.30;90.40;;;;;;5012348;28;20021;-57
2021/01/04 00:45:44;;;;;;;18.70;13.95;;;3.30;90.40;;;;;;5010746;28;20042;-57
2021/01/04 00:48:33;;;;;;;16.98;13.32;;;3.20;90.40;;;;;;5010499;28;20018;-57
2021/01/04 00:51:14;;;;;;;16.73;13.07;;;3.30;90.40;;;;;;5012016;28;20038;-60
2021/01/04 00:53:44;;;;;;;17.20;13.52;;;3.20;90.50;;;;;;5012746;28;20026;-59
2021/01/04 00:56:10;;;;;;;18.38;14.10;;;3.20;90.40;;;;;;5010003;28;20072;-59
2021/01/04 00:58:48;;;;;;;16.83;12.65;;;3.20;90.50;;;;;;5015957;28;20068;-59
2021/01/04 01:01:53;;;;;;;18.08;12.55;;;3.20;90.40;;;;;;5017987;28;20025;-59
2021/01/04 01:04:54;;;;;;;19.83;14.10;;;3.20;90.50;;;;;;5021951;28;20081;-58
2021/01/04 01:07:50;;;;;;;17.30;12.95;;;3.10;90.50;;;;;;5017473;28;20247;-59
2021/01/04 01:10:16;;;;;;;;;;;3.10;90.50;;;;;;5024732;28;20034;-57
2021/01/04 01:12:51;;;;;;;17.77;13.25;;;3.10;90.50;;;;;;5021651;28;19909;-60
2021/01/04 01:15:20;;;;;;;;;;;3.10;90.50;;;;;;5016361;28;20029;-60
2021/01/04 01:18:00;;;;;;;16.38;12.60;;;3.10;90.50;;;;;;5023766;28;19905;-56
2021/01/04 01:20:26;;;;;;;21.05;14.60;;;3.10;90.50;;;;;;5031405;28;20035;-59
2021/01/04 01:22:51;;;;;;;18.40;14.52;;;3.10;90.50;;;;;;5022940;28;20038;-58
2021/01/04 01:25:23;;;;;;;18.48;13.80;;;3.10;90.50;;;;;;5024322;28;20033;-59
2021/01/04 01:28:26;;;;;;;18.60;13.82;;;3.00;90.60;;;;;;5025934;28;20022;-59
2021/01/04 01:30:58;;;;;;;16.60;13.82;;;3.00;90.60;;;;;;5017540;28;20026;-57
2021/01/04 01:33:53;;;;;;;16.38;13.07;;;3.00;90.60;;;;;;5032467;28;20083;-57
2021/01/04 01:36:31;;;;;;;18.13;13.35;;;3.10;90.60;;;;;;5036114;28;20037;-59
2021/01/04 01:39:09;;;;;;;17.50;13.90;;;3.00;90.60;;;;;;5039311;28;20048;-56
2021/01/04 01:42:11;;;;;;;16.92;13.45;;;3.10;90.70;;;;;;5056529;28;20234;-57
2021/01/04 01:45:04;;;;;;;18.13;13.40;;;3.00;90.70;;;;;;5038843;28;20049;-58
2021/01/04 01:47:31;;;;;;;18.23;13.18;;;3.00;90.60;;;;;;5028141;28;20489;-56
2021/01/04 01:50:30;;;;;;;17.48;13.75;;;3.00;90.60;;;;;;5038432;28;20033;-60
2021/01/04 01:53:07;;;;;;;18.75;13.80;;;3.00;91.00;;;;;;4993819;28;20090;-57
2021/01/04 01:55:53;;;;;;;16.35;12.77;;;3.00;90.70;;;;;;5027955;28;20044;-58
2021/01/04 01:59:13;;;;;;;15.77;12.57;;;3.00;90.70;;;;;;5054826;28;20030;-59
2021/01/04 02:01:48;;;;;;;17.00;13.35;;;3.00;90.70;;;;;;4945822;29;20126;-59
2021/01/04 02:04:26;;;;;;;17.38;13.05;;;3.10;90.80;;;;;;5008578;28;20033;-58
2021/01/04 02:06:57;;;;;;;18.27;13.82;;;3.00;90.70;;;;;;5024562;28;20087;-59
2021/01/04 02:09:25;;;;;;;19.08;12.88;;;3.00;90.80;;;;;;5023068;28;20100;-57
2021/01/04 02:12:12;;;;;;;16.38;12.50;;;3.00;90.80;;;;;;5012707;28;20055;-59
2021/01/04 02:14:40;;;;;;;16.75;13.20;;;3.00;90.80;;;;;;5033488;28;20017;-56
2021/01/04 02:17:29;;;;;;;17.17;13.55;;;3.00;90.80;;;;;;5045362;28;21211;-59
2021/01/04 02:20:13;;;;;;;14.73;12.20;;;3.00;90.80;;;;;;5020974;28;20033;-58
2021/01/04 02:23:03;;;;;;;14.20;11.77;;;3.30;90.90;;;;;;5040975;28;20029;-59
2021/01/04 02:25:29;;;;;;;17.42;12.93;;;3.00;90.80;;;;;;5033708;28;20071;-59
2021/01/04 02:27:55;;;;;;;17.58;13.30;;;3.00;90.80;;;;;;5026259;28;20028;-60
2021/01/04 02:30:21;;;;;;;17.05;12.60;;;3.00;90.80;;;;;;5019031;28;20029;-59
2021/01/04 02:32:46;;;;;;;16.60;13.07;;;3.00;90.80;;;;;;5029609;28;20033;-57
2021/01/04 02:35:12;;;;;;;15.77;12.50;;;3.00;90.90;;;;;;5049196;28;20024;-58
2021/01/04 02:37:38;;;;;;;16.63;13.65;;;3.00;90.80;;;;;;5014820;28;20481;-57
2021/01/04 02:40:06;;;;;;;16.65;12.88;;;3.00;90.90;;;;;;5030163;28;20029;-57
2021/01/04 02:42:50;;;;;;;15.85;12.43;;;3.00;90.90;;;;;;5029487;28;20032;-59
2021/01/04 02:45:42;;;;;;;15.68;12.57;;;3.00;90.80;;;;;;5042771;28;20065;-58
2021/01/04 02:48:44;;;;;;;17.38;12.65;;;3.00;90.80;;;;;;5038834;28;20492;-59
2021/01/04 02:51:22;;;;;;;16.38;12.85;;;3.00;90.90;;;;;;5023926;28;20034;-58
2021/01/04 02:54:21;;;;;;;15.70;12.20;;;3.00;90.90;;;;;;5029834;28;20075;-56
2021/01/04 02:57:19;;;;;;;19.25;13.15;;;3.00;90.90;;;;;;5033909;28;20404;-59
2021/01/04 02:59:52;;;;;;;16.42;12.32;;;3.00;90.90;;;;;;5038243;28;20240;-56
2021/01/04 03:02:39;;;;;;;16.85;13.13;;;3.00;90.90;;;;;;5032004;28;20021;-58
2021/01/04 03:05:06;;;;;;;17.15;12.55;;;3.00;90.90;;;;;;5036930;28;20025;-60
2021/01/04 03:07:34;;;;;;;16.27;12.60;;;3.00;90.90;;;;;;5022845;28;20164;-59
2021/01/04 03:10:06;;;;;;;16.52;12.60;;;3.00;90.90;;;;;;5022842;28;20093;-57
2021/01/04 03:12:32;;;;;;;17.35;13.32;;;3.00;90.90;;;;;;5044230;28;20040;-57
2021/01/04 03:15:09;;;;;;;16.23;12.80;;;3.00;90.90;;;;;;5015094;28;20044;-60
2021/01/04 03:17:57;;;;;;;17.08;12.45;;;3.00;90.90;;;;;;5029071;28;20029;-60
2021/01/04 03:20:23;;;;;;;16.52;12.80;;;3.00;91.00;;;;;;5023845;28;20071;-57
2021/01/04 03:22:49;;;;;;;16.67;13.05;;;3.00;91.00;;;;;;5030024;28;20106;-58
2021/01/04 03:25:30;;;;;;;16.30;12.18;;;3.00;91.00;;;;;;5037680;28;20480;-57
2021/01/04 03:27:56;;;;;;;16.83;12.75;;;3.00;90.90;;;;;;5014138;28;20065;-58
2021/01/04 03:30:22;;;;;;;17.27;13.02;;;3.00;91.00;;;;;;5043761;28;20048;-57
2021/01/04 03:32:47;;;;;;;16.83;13.27;;;3.00;90.90;;;;;;5048859;28;20484;-56
2021/01/04 03:35:13;;;;;;;14.98;12.52;;;3.00;91.00;;;;;;5032609;28;20044;-57
2021/01/04 03:37:38;;;;;;;15.80;12.73;;;3.00;91.00;;;;;;5048866;28;20247;-60
2021/01/04 03:40:05;;;;;;;18.42;13.63;;;3.00;91.00;;;;;;5028407;28;20028;-57
2021/01/04 03:42:30;;;;;;;16.35;13.48;;;3.00;91.00;;;;;;5041585;28;20095;-56
2021/01/04 03:44:56;;;;;;;15.52;12.48;;;3.00;91.00;;;;;;5044008;28;20489;-57
2021/01/04 03:47:21;;;;;;;15.48;12.10;;;3.00;91.00;;;;;;5041548;28;20060;-56
2021/01/04 03:49:47;;;;;;;17.48;12.77;;;3.10;91.00;;;;;;5033680;28;20036;-57
2021/01/04 03:52:12;;;;;;;17.60;13.18;;;3.00;91.00;;;;;;5026944;28;20108;-58
2021/01/04 03:54:41;;;;;;;16.23;12.68;;;3.00;91.00;;;;;;5031465;28;20124;-57
2021/01/04 03:57:06;;;;;;;16.88;13.23;;;3.10;91.00;;;;;;5055794;28;20228;-59
2021/01/04 03:59:32;;;;;;;17.20;13.07;;;3.00;90.90;;;;;;5048294;28;20570;-59
2021/01/04 04:01:58;;;;;;;16.23;12.20;;;3.00;91.00;;;;;;5046296;28;20025;-56
2021/01/04 04:04:23;;;;;;;16.92;13.35;;;3.00;91.00;;;;;;5049411;28;20016;-57
2021/01/04 04:06:49;;;;;;;20.10;13.63;;;3.00;91.00;;;;;;5047912;28;20361;-60
2021/01/04 04:09:15;;;;;;;14.10;11.55;;;3.00;91.00;;;;;;5049501;28;20072;-57
2021/01/04 04:11:41;;;;;;;22.17;13.73;;;3.00;91.00;;;;;;5031521;28;20496;-60
2021/01/04 04:14:06;;;;;;;15.57;12.80;;;3.10;91.00;;;;;;5043059;28;20068;-58
2021/01/04 04:16:32;;;;;;;18.52;13.70;;;3.00;91.00;;;;;;5047107;28;20049;-57
2021/01/04 04:18:58;;;;;;;16.45;13.63;;;3.00;91.00;;;;;;5057342;28;20109;-57
2021/01/04 04:21:23;;;;;;;16.50;13.15;;;3.00;91.00;;;;;;5029412;28;20013;-59
2021/01/04 04:23:49;;;;;;;16.20;12.50;;;3.00;91.00;;;;;;5047948;28;20100;-59
2021/01/04 04:26:16;;;;;;;17.73;13.82;;;3.10;91.00;;;;;;5036642;28;20044;-59
2021/01/04 04:28:41;;;;;;;15.95;12.40;;;3.00;90.90;;;;;;5043713;28;20104;-59
2021/01/04 04:31:07;;;;;;;15.00;11.93;;;3.10;91.00;;;;;;5044840;28;20092;-59
2021/01/04 04:33:32;;;;;;;16.58;13.45;;;3.00;91.00;;;;;;5044357;28;20033;-58
2021/01/04 04:35:58;;;;;;;17.40;14.02;;;3.00;91.00;;;;;;5043743;28;20389;-57
2021/01/04 04:38:23;;;;;;;18.67;13.82;;;3.00;91.00;;;;;;5041325;28;20037;-59
2021/01/04 04:40:49;;;;;;;17.35;13.32;;;3.00;91.00;;;;;;5042300;28;20033;-56
2021/01/04 04:43:25;;;;;;;18.58;13.60;;;3.00;91.00;;;;;;5034088;28;20025;-59
2021/01/04 04:45:50;;;;;;;;;;;3.00;91.00;;;;;;5029179;28;20149;-59
2021/01/04 04:48:31;;;;;;;17.30;13.25;;;3.00;91.00;;;;;;5042830;28;20042;-57
2021/01/04 04:51:21;;;;;;;17.67;13.80;;;3.00;91.00;;;;;;5037031;28;20028;-57
2021/01/04 04:54:16;;;;;;;16.08;12.93;;;3.00;90.90;;;;;;5046425;28;20438;-57
2021/01/04 04:57:16;;;;;;;17.58;13.38;;;3.00;91.00;;;;;;4993750;28;20063;-57
2021/01/04 04:59:56;;;;;;;15.32;12.85;;;3.00;91.00;;;;;;5015260;28;20061;-60
2021/01/04 05:02:49;;;;;;;17.33;13.50;;;3.00;91.00;;;;;;5020992;28;20022;-57
2021/01/04 05:05:21;;;;;;;17.58;13.57;;;3.00;90.90;;;;;;5032422;28;20108;-56
2021/01/04 05:07:56;;;;;;;16.38;12.55;;;3.00;91.00;;;;;;5040011;28;20120;-58
2021/01/04 05:10:30;;;;;;;18.27;13.80;;;3.00;91.00;;;;;;5011586;28;20032;-57
2021/01/04 05:13:23;;;;;;;17.63;14.07;;;3.00;91.00;;;;;;5039427;28;20078;-58
2021/01/04 05:16:13;;;;;;;16.70;12.73;;;3.00;91.00;;;;;;5042476;28;20086;-59
2021/01/04 05:18:58;;;;;;;18.38;14.00;;;3.00;91.00;;;;;;4997093;28;20037;-57
2021/01/04 05:21:47;;;;;;;15.82;12.50;;;3.00;91.00;;;;;;5042342;28;20033;-59
2021/01/04 05:24:15;;;;;;;17.05;13.23;;;3.00;91.00;;;;;;5031359;28;20026;-59
2021/01/04 05:26:49;;;;;;;15.90;12.25;;;3.00;90.90;;;;;;5027992;28;20388;-56
2021/01/04 05:29:45;;;;;;;16.80;13.00;;;3.00;91.00;;;;;;5037541;28;20618;-57
2021/01/04 05:32:26;;;;;;;;;;;3.00;90.90;;;;;;5016709;28;20090;-58
2021/01/04 05:35:03;;;;;;;17.42;13.18;;;3.00;90.90;;;;;;5016910;28;20328;-57
2021/01/04 05:38:01;;;;;;;16.77;13.60;;;3.00;90.90;;;;;;4993684;28;20024;-57
2021/01/04 05:40:50;;;;;;;18.30;13.18;;;3.00;90.90;;;;;;5015997;28;20037;-59
2021/01/04 05:43:28;;;;;;;19.40;14.40;;;3.00;91.00;;;;;;5034463;28;20563;-59
2021/01/04 05:46:13;;;;;;;18.92;14.15;;;3.00;91.00;;;;;;5019661;28;20030;-58
2021/01/04 05:48:49;;;;;;;18.45;14.13;;;3.00;91.00;;;;;;5021657;28;20499;-59
2021/01/04 05:51:21;;;;;;;17.67;13.75;;;3.00;91.00;;;;;;5021405;28;20163;-59
2021/01/04 05:53:47;;;;;;;16.25;13.38;;;3.00;90.90;;;;;;5040700;28;20030;-57
2021/01/04 05:56:22;;;;;;;17.52;13.93;;;3.00;90.90;;;;;;5035843;28;20048;-57
2021/01/04 05:58:48;;;;;;;19.88;15.27;;;3.00;91.00;;;;;;5036484;28;20518;-58
2021/01/04 06:01:24;;;;;;;18.40;13.88;;;3.00;91.00;;;;;;5019684;28;20017;-58
2021/01/04 06:04:24;;;;;;;19.00;14.30;;;3.00;90.90;;;;;;5039417;28;20018;-58
2021/01/04 06:06:54;;;;;;;20.75;14.30;;;3.00;91.00;;;;;;5039049;28;20610;-59
2021/01/04 06:09:20;;;;;;;19.80;14.65;;;3.10;90.90;;;;;;5042142;28;20029;-59
2021/01/04 06:11:54;;;;;;;16.90;14.00;;;3.00;90.90;;;;;;5041340;28;20042;-57
2021/01/04 06:14:20;;;;;;;16.65;12.82;;;2.90;90.90;;;;;;5042989;28;20021;-58
2021/01/04 06:16:45;;;;;;;19.33;14.52;;;3.10;91.00;;;;;;5041292;28;20037;-59
2021/01/04 06:19:17;;;;;;;18.25;13.43;;;3.00;90.90;;;;;;5024161;28;20067;-58
2021/01/04 06:21:46;;;;;;;18.08;13.95;;;3.10;90.90;;;;;;5039507;28;20028;-57
2021/01/04 06:24:22;;;;;;;17.27;13.43;;;3.10;91.00;;;;;;5024294;28;20041;-59
2021/01/04 06:26:49;;;;;;;17.88;13.55;;;3.00;90.90;;;;;;5033862;28;20037;-57
2021/01/04 06:29:15;;;;;;;18.98;14.13;;;3.00;90.90;;;;;;5045466;28;20146;-57
2021/01/04 06:31:45;;;;;;;16.25;13.38;;;3.10;90.90;;;;;;5047144;28;20529;-59
2021/01/04 06:34:25;;;;;;;19.17;14.57;;;3.00;90.90;;;;;;5031283;28;20655;-59
2021/01/04 06:36:56;;;;;;;17.58;13.45;;;3.10;91.00;;;;;;5019452;28;20401;-59
2021/01/04 06:39:30;;;;;;;17.85;13.85;;;3.00;90.90;;;;;;5002868;28;20028;-57
2021/01/04 06:42:05;;;;;;;23.20;14.50;;;3.00;90.90;;;;;;5035473;28;20049;-58
2021/01/04 06:44:31;;;;;;;19.98;14.38;;;3.00;90.90;;;;;;5038802;28;20036;-57
2021/01/04 06:47:06;;;;;;;18.80;14.18;;;3.00;90.90;;;;;;5050415;28;20503;-58
2021/01/04 06:49:43;;;;;;;17.67;13.48;;;3.00;90.90;;;;;;5020672;28;20155;-57
2021/01/04 06:52:54;;;;;;;18.60;14.73;;;3.00;90.90;;;;;;5024027;28;20099;-59
2021/01/04 06:55:19;;;;;;;16.95;13.77;;;3.00;90.90;;;;;;5009255;28;20500;-56
2021/01/04 06:58:11;;;;;;;18.20;14.05;;;3.00;90.90;;;;;;5048536;28;20029;-59
2021/01/04 07:00:46;;;;;;;18.25;14.27;;;3.10;90.90;;;;;;5030735;28;20424;-58
2021/01/04 07:03:36;;;;;;;20.00;15.00;;;3.10;90.90;;;;;;5022865;28;20059;-58
2021/01/04 07:06:24;;;;;;;18.40;14.60;;;3.10;90.90;;;;;;5033758;28;20028;-58
2021/01/04 07:09:18;;;;;;;18.33;13.98;;;3.10;90.90;;;;;;5032498;28;20361;-60
2021/01/04 07:11:54;;;;;;;18.05;14.55;;;3.10;90.90;;;;;;5000609;28;20060;-60
2021/01/04 07:14:54;;;;;;;16.45;13.10;;;3.00;90.90;;;;;;5038510;28;20013;-58
2021/01/04 07:17:38;;;;;;;19.92;14.27;;;3.10;90.90;;;;;;5019474;28;20022;-57
2021/01/04 07:20:41;;;;;;;20.42;15.13;;;3.10;90.90;;;;;;5046493;28;20511;-58
2021/01/04 07:23:41;;;;;;;19.67;13.68;;;3.10;90.90;;;;;;5049173;28;20486;-59
2021/01/04 07:26:41;;;;;;;19.08;14.98;;;3.10;90.90;;;;;;5053850;28;20070;-58
2021/01/04 07:29:17;;;;;;;20.67;14.75;;;3.10;90.90;;;;;;5016672;28;20033;-58
2021/01/04 07:31:43;;;;;;;;;;;3.10;90.90;;;;;;5027511;28;20039;-59
2021/01/04 07:34:39;;;;;;;18.38;14.02;;;3.10;90.90;;;;;;5023520;28;19925;-56
2021/01/04 07:37:35;;;;;;;17.60;13.18;;;3.10;90.90;;;;;;5025461;28;20481;-58
2021/01/04 07:40:29;;;;;;;18.48;14.30;;;3.10;90.90;;;;;;5024722;28;20127;-58
2021/01/04 07:43:18;;;;;;;18.38;14.05;;;3.10;90.90;;;;;;5035105;28;20042;-56
2021/01/04 07:45:45;;;;;;;19.27;15.38;;;3.10;90.90;;;;;;4998139;28;20116;-57
2021/01/04 07:48:32;;;;;;;22.17;15.25;;;3.10;90.90;;;;;;5019165;28;20116;-58
2021/01/04 07:51:43;;;;;;;21.90;15.93;;;3.10;90.90;;;;;;5013133;28;20028;-57
2021/01/04 07:54:41;;;;;;;21.10;14.68;;;3.10;90.90;;;;;;5033579;28;20067;-59
2021/01/04 07:57:39;;;;;;;20.70;14.77;;;3.10;90.90;;;;;;5030403;28;20388;-58
2021/01/04 08:00:08;;;;;;;19.95;14.48;;;3.10;90.90;;;;;;5034882;28;20040;-58
2021/01/04 08:02:50;;;;;;;20.27;14.20;;;3.20;90.90;;;;;;5042467;28;20056;-59
2021/01/04 08:05:34;;;;;;;19.98;14.95;;;3.10;90.90;;;;;;5038674;28;20469;-57
2021/01/04 08:08:29;;;;;;;19.58;15.45;;;3.20;90.90;;;;;;5040613;28;20389;-60
2021/01/04 08:11:30;;;;;;;20.55;15.45;;;3.20;90.90;;;;;;5033071;28;20044;-59
2021/01/04 08:14:29;;;;;;;21.40;15.13;;;3.20;90.90;;;;;;5015208;28;20362;-59
2021/01/04 08:17:05;;;;;;;19.63;14.82;;;3.20;90.90;;;;;;5041921;28;20550;-57
2021/01/04 08:19:30;;;;;;;25.27;15.55;;;3.10;90.90;;;;;;5017415;28;20412;-58
2021/01/04 08:22:43;;;;;;;23.17;15.85;;;3.20;91.00;;;;;;5021039;28;20058;-58
2021/01/04 08:25:38;;;;;;;20.38;14.82;;;3.20;91.00;;;;;;5000674;28;20041;-58
2021/01/04 08:28:20;;;;;;;26.05;16.05;;;3.20;91.00;;;;;;4999024;28;20032;-58
2021/01/04 08:31:25;;;;;;;22.67;16.33;;;3.20;91.00;;;;;;5052011;28;20103;-59
2021/01/04 08:33:52;;;;;;;27.00;15.93;;;3.20;91.00;;;;;;4998603;28;20084;-58
2021/01/04 08:36:26;;;;;;;25.70;16.48;;;3.20;91.00;;;;;;5040086;28;20037;-59
2021/01/04 08:39:02;;;;;;;27.33;17.35;;;3.20;91.10;;;;;;5025352;28;20024;-58
2021/01/04 08:41:29;;;;;;;26.35;16.48;;;3.20;91.10;;;;;;5041385;28;20056;-57
2021/01/04 08:43:55;;;;;;;32.75;18.27;;;3.20;91.10;;;;;;5052999;28;20028;-56
2021/01/04 08:46:23;;;;;;;24.92;16.90;;;3.30;91.10;;;;;;5026654;28;20083;-58
2021/01/04 08:48:49;;;;;;;23.50;17.02;;;3.20;91.10;;;;;;5054840;28;20040;-58
2021/01/04 08:51:24;;;;;;;24.65;16.92;;;3.30;91.10;;;;;;5027471;28;20488;-59
2021/01/04 08:53:54;;;;;;;23.70;17.47;;;3.30;91.10;;;;;;5047790;28;20037;-59
2021/01/04 08:56:27;;;;;;;25.13;17.42;;;3.30;91.10;;;;;;5044635;28;20291;-59
2021/01/04 08:59:03;;;;;;;24.10;16.75;;;3.30;91.00;;;;;;5016001;28;20562;-58
2021/01/04 09:01:28;;;;;;;26.30;17.38;;;3.30;91.00;;;;;;5035982;28;20037;-58
2021/01/04 09:04:05;;;;;;;26.00;17.88;;;3.30;91.00;;;;;;5011351;28;20032;-58
2021/01/04 09:06:32;;;;;;;27.08;17.20;;;3.30;91.00;;;;;;5034450;28;20026;-57
2021/01/04 09:09:21;;;;;;;25.92;18.85;;;3.30;91.00;;;;;;5029568;28;20033;-58
2021/01/04 09:12:02;;;;;;;27.25;17.15;;;3.30;90.90;;;;;;5034913;28;20025;-59
2021/01/04 09:14:59;;;;;;;28.65;18.27;;;3.40;91.00;;;;;;5024532;28;20348;-57
2021/01/04 09:17:45;;;;;;;23.70;17.23;;;3.40;91.30;;;;;;5026289;28;20048;-59
2021/01/04 09:20:18;;;;;;;24.85;17.02;;;3.40;90.90;;;;;;5013697;28;20029;-59
2021/01/04 09:22:44;;;;;;;27.45;17.48;;;3.40;91.00;;;;;;5030746;28;20491;-59
2021/01/04 09:25:25;;;;;;;25.25;17.58;;;3.40;90.90;;;;;;5034920;28;20037;-59
2021/01/04 09:27:51;;;;;;;29.27;17.77;;;3.40;90.90;;;;;;5035868;28;20033;-59
2021/01/04 09:30:24;;;;;;;28.27;17.67;;;3.40;90.90;;;;;;5036384;28;20041;-59
2021/01/04 09:32:50;;;;;;;34.88;19.30;;;3.40;90.90;;;;;;5046241;28;20540;-59
2021/01/04 09:35:25;;;;;;;22.08;17.42;;;3.40;90.90;;;;;;5041126;28;20040;-58
2021/01/04 09:38:04;;;;;;;23.33;16.50;;;3.40;90.90;;;;;;5030571;28;20032;-58
2021/01/04 09:40:30;;;;;;;23.70;16.08;;;3.40;90.90;;;;;;5014678;28;20022;-57
2021/01/04 09:43:09;;;;;;;28.10;18.85;;;3.40;90.90;;;;;;5038278;28;20383;-59
2021/01/04 09:45:35;;;;;;;30.48;18.85;;;3.40;90.90;;;;;;5041273;28;20024;-59
2021/01/04 09:48:10;;;;;;;26.23;17.45;;;3.50;90.80;;;;;;5044428;28;20028;-59
2021/01/04 09:50:56;;;;;;;28.80;17.75;;;3.50;90.80;;;;;;5016793;28;20044;-57
2021/01/04 09:53:31;;;;;;;29.98;17.73;;;3.50;90.80;;;;;;5014413;28;20030;-59
2021/01/04 09:55:58;;;;;;;29.60;18.23;;;3.50;90.80;;;;;;5015622;28;20404;-58
2021/01/04 09:58:24;;;;;;;26.35;17.33;;;3.50;90.70;;;;;;5025418;28;20162;-57
2021/01/04 10:00:49;;;;;;;26.30;17.52;;;3.50;90.70;;;;;;5048561;28;20119;-57
2021/01/04 10:03:20;;;;;;;27.30;17.30;;;3.50;90.70;;;;;;5056034;28;20098;-58
2021/01/04 10:05:47;;;;;;;30.85;16.77;;;3.50;90.70;;;;;;5041763;28;20162;-59
2021/01/04 10:08:15;;;;;;;33.75;16.85;;;3.50;90.70;;;;;;5009208;28;20334;-58
2021/01/04 10:10:52;;;;;;;31.10;17.52;;;3.50;90.60;;;;;;5031050;28;20510;-59
2021/01/04 10:13:20;;;;;;;29.98;17.65;;;3.60;90.60;;;;;;5021300;28;20112;-59
2021/01/04 10:15:45;;;;;;;35.50;17.38;;;3.60;90.60;;;;;;5031527;28;20021;-59
2021/01/04 10:18:23;;;;;;;29.00;18.40;;;3.60;90.50;;;;;;5005465;28;20388;-57
2021/01/04 10:20:50;;;;;;;27.98;17.15;;;3.60;90.50;;;;;;5012252;28;20441;-56
2021/01/04 10:23:23;;;;;;;28.98;16.50;;;3.60;90.50;;;;;;5029570;28;20075;-57
2021/01/04 10:25:55;;;;;;;35.10;17.30;;;3.60;90.40;;;;;;5017275;28;20038;-57
2021/01/04 10:28:20;;;;;;;31.88;17.33;;;3.70;90.50;;;;;;5030630;28;20025;-57
2021/01/04 10:30:46;;;;;;;35.83;17.40;;;3.70;90.40;;;;;;5020827;28;20030;-59
2021/01/04 10:33:30;;;;;;;33.60;17.05;;;3.70;90.30;;;;;;5014752;28;20370;-57
2021/01/04 10:36:20;;;;;;;23.02;14.50;;;3.60;90.20;;;;;;5043424;28;20029;-60
2021/01/04 10:38:54;;;;;;;25.10;15.23;;;3.70;90.20;;;;;;5012852;28;20163;-59
2021/01/04 10:41:19;;;;;;;39.15;16.40;;;3.60;90.00;;;;;;5039238;28;20033;-58
2021/01/04 10:43:45;;;;;;;30.50;14.90;;;3.70;90.00;;;;;;5034796;28;20046;-59
2021/01/04 10:46:22;;;;;;;26.20;15.23;;;3.70;90.10;;;;;;5033166;28;20496;-57
2021/01/04 10:48:57;;;;;;;33.40;15.82;;;3.70;90.10;;;;;;5026969;28;20377;-57
2021/01/04 10:51:23;;;;;;;33.00;16.15;;;3.80;90.00;;;;;;5030928;28;20033;-57
2021/01/04 10:53:48;;;;;;;24.80;14.75;;;3.70;89.70;;;;;;5019167;28;20098;-59
2021/01/04 10:56:21;;;;;;;27.60;14.90;;;3.70;89.40;;;;;;5040071;28;20084;-58
2021/01/04 10:58:46;;;;;;;21.00;13.57;;;3.70;89.20;;;;;;5023881;28;20041;-57
2021/01/04 11:01:15;;;;;;;38.45;15.60;;;3.70;89.00;;;;;;5045483;28;20417;-56
2021/01/04 11:03:45;;;;;;;26.30;13.75;;;3.80;88.80;;;;;;5010870;28;20033;-59
2021/01/04 11:06:35;;;;;;;23.50;13.63;;;3.70;88.40;;;;;;5022776;28;20392;-59
2021/01/04 11:09:21;;;;;;;25.88;13.38;;;3.70;88.40;;;;;;5025559;28;20041;-58
2021/01/04 11:11:48;;;;;;;28.92;15.07;;;3.80;88.60;;;;;;5040316;28;20377;-56
2021/01/04 11:14:19;;;;;;;35.22;14.00;;;3.80;88.50;;;;;;5026732;28;20029;-56
2021/01/04 11:16:52;;;;;;;30.58;13.85;;;3.80;88.40;;;;;;5025996;28;20034;-59
2021/01/04 11:19:31;;;;;;;29.48;13.60;;;3.80;88.20;;;;;;5050481;28;20025;-57
2021/01/04 11:22:11;;;;;;;40.90;14.85;;;3.80;88.20;;;;;;5028367;28;20025;-57
2021/01/04 11:24:36;;;;;;;32.90;14.70;;;3.80;88.10;;;;;;5037861;28;20473;-59
2021/01/04 11:27:02;;;;;;;31.67;14.00;;;3.80;88.10;;;;;;5048783;28;20080;-60
2021/01/04 11:29:28;;;;;;;32.78;14.80;;;3.90;88.10;;;;;;5036707;28;20395;-57
2021/01/04 11:31:53;;;;;;;28.58;13.73;;;3.90;87.80;;;;;;5037808;28;20037;-58
2021/01/04 11:34:18;;;;;;;30.70;13.98;;;3.90;87.80;;;;;;5043395;28;20069;-59
2021/01/04 11:36:44;;;;;;;24.45;14.05;;;3.90;87.70;;;;;;5031474;28;20028;-57
2021/01/04 11:39:09;;;;;;;26.35;14.02;;;3.90;87.70;;;;;;5045627;28;20514;-59
2021/01/04 11:41:35;;;;;;;26.52;14.77;;;4.00;87.60;;;;;;5042078;28;20021;-59
2021/01/04 11:44:01;;;;;;;24.92;13.57;;;3.90;87.50;;;;;;5048868;28;20032;-59
2021/01/04 11:46:26;;;;;;;25.23;13.50;;;3.90;87.40;;;;;;5043955;28;20013;-59
2021/01/04 11:48:52;;;;;;;23.35;13.80;;;3.90;87.30;;;;;;5041367;28;20029;-59
2021/01/04 11:51:21;;;;;;;20.23;13.40;;;4.00;87.30;;;;;;5042107;28;20454;-57
2021/01/04 11:53:48;;;;;;;27.88;14.35;;;4.00;86.90;;;;;;5021845;28;20044;-59
2021/01/04 11:56:13;;;;;;;20.10;13.30;;;4.00;87.20;;;;;;5018877;28;20028;-59
2021/01/04 11:58:39;;;;;;;19.13;12.98;;;4.00;86.90;;;;;;5027000;28;20388;-57
2021/01/04 12:01:05;;;;;;;24.00;14.05;;;4.00;87.00;;;;;;5037124;28;20029;-58
2021/01/04 12:03:31;;;;;;;23.27;13.25;;;4.00;86.90;;;;;;5023778;28;20025;-57
2021/01/04 12:05:56;;;;;;;23.00;14.10;;;4.00;86.80;;;;;;5035562;28;20108;-57
2021/01/04 12:08:22;;;;;;;23.30;14.48;;;4.00;86.80;;;;;;5047298;28;20044;-57
2021/01/04 12:10:48;;;;;;;19.73;13.52;;;4.00;86.70;;;;;;5025944;28;20044;-60
2021/01/04 12:13:13;;;;;;;21.48;14.73;;;4.00;86.70;;;;;;5052952;28;20035;-59
2021/01/04 12:15:39;;;;;;;21.45;14.68;;;4.10;86.60;;;;;;5034823;28;20479;-59
2021/01/04 12:18:04;;;;;;;21.20;14.40;;;4.10;86.60;;;;;;5047417;28;20464;-56
2021/01/04 12:20:30;;;;;;;20.92;13.43;;;4.10;86.70;;;;;;5025918;28;20035;-58
2021/01/04 12:22:55;;;;;;;23.70;14.93;;;4.10;86.60;;;;;;5032768;28;20025;-58
2021/01/04 12:25:21;;;;;;;21.67;14.32;;;4.10;86.40;;;;;;5034132;28;20033;-58
2021/01/04 12:27:46;;;;;;;20.52;14.50;;;4.10;86.30;;;;;;5052676;28;20051;-60
2021/01/04 12:30:12;;;;;;;23.83;14.80;;;4.10;86.30;;;;;;5042405;28;20029;-58
2021/01/04 12:32:41;;;;;;;25.05;15.57;;;4.10;86.30;;;;;;5045551;28;20509;-58
2021/01/04 12:35:09;;;;;;;23.15;14.38;;;4.10;86.30;;;;;;5033988;28;20033;-57
2021/01/04 12:37:35;;;;;;;21.67;14.32;;;4.10;86.30;;;;;;5030926;28;20103;-57
2021/01/04 12:40:01;;;;;;;19.17;15.02;;;4.10;86.30;;;;;;5034012;28;20086;-59
2021/01/04 12:42:27;;;;;;;20.20;13.68;;;4.10;86.20;;;;;;5021587;28;20477;-56
2021/01/04 12:44:52;;;;;;;19.65;13.82;;;4.20;86.20;;;;;;5047046;28;20045;-58
2021/01/04 12:47:18;;;;;;;21.30;14.45;;;4.20;86.10;;;;;;5034366;28;20029;-57
2021/01/04 12:49:43;;;;;;;25.15;14.23;;;4.10;86.00;;;;;;5022938;28;20403;-58
2021/01/04 12:52:09;;;;;;;22.55;14.50;;;4.10;85.90;;;;;;5040807;28;20033;-59
2021/01/04 12:54:36;;;;;;;20.27;13.93;;;4.10;85.90;;;;;;5010755;28;20072;-56
2021/01/04 12:57:02;;;;;;;20.50;14.40;;;4.20;86.20;;;;;;5044598;28;20044;-58
2021/01/04 12:59:28;;;;;;;22.35;14.20;;;4.20;85.90;;;;;;5045745;28;20354;-58
2021/01/04 13:01:55;;;;;;;21.45;14.73;;;4.20;85.90;;;;;;5047315;28;20028;-57
2021/01/04 13:04:25;;;;;;;21.52;13.45;;;4.20;86.00;;;;;;5043662;28;20021;-59
2021/01/04 13:06:52;;;;;;;24.27;14.38;;;4.20;85.90;;;;;;5041650;28;20029;-59
2021/01/04 13:09:17;;;;;;;20.42;14.02;;;4.20;85.90;;;;;;5037593;28;20033;-58
2021/01/04 13:11:47;;;;;;;20.05;14.50;;;4.20;85.80;;;;;;5018349;28;20033;-58
2021/01/04 13:14:12;;;;;;;18.73;14.30;;;4.20;85.80;;;;;;5017157;28;20115;-60
2021/01/04 13:16:38;;;;;;;19.92;13.30;;;4.20;85.90;;;;;;5046571;28;20111;-59
2021/01/04 13:19:04;;;;;;;21.63;15.35;;;4.20;85.80;;;;;;5022317;28;20640;-57
2021/01/04 13:21:30;;;;;;;18.60;13.85;;;4.20;85.80;;;;;;5012445;28;20119;-60